Terminal Aerodrome Forecast
Issued by NWS

Home | Current Version | Previous Version | Text Only | Print | Product List | Glossary On
Versions: 1 2 3 4 5 6 7 8 9 10 11 12 13 14 15 16 17 18 19 20 21 22 23 24 25
535
FTUS46 KLOX 111139
TAFOXR
TAF
KOXR 111139Z 1112/1212 VRB03KT 6SM BR VCSH OVC009
      TEMPO 1112/1115 2SM BR OVC014
     FM111500 VRB03KT 3SM BR VCSH BKN007 OVC015
     FM111900 26008KT 5SM BR SCT007 BKN012
     FM120300 VRB03KT 5SM BR OVC050=

USA.gov is the U.S. government's official web portal to all federal, state and local government web resources and services.